Time;durP1;ratioP1;P1;durP2;ratioP2;P2;SDS_P1;SDS_P2;PMS_P1;PMS_P2;Temp;Humidity;BMP_temperature;BMP_pressure;BME280_temperature;BME280_humidity;BME280_pressure;Samples;Min_cycle;Max_cycle;Signal;HPM_P1;HPM_P2
2022/05/25 00:01:04;;;;;;;0.00;0.00;;;14.20;99.90;;;;;;5052232;28;20056;-73
2022/05/25 00:03:32;;;;;;;0.10;0.10;;;14.10;99.90;;;;;;5017911;28;20025;-72
2022/05/25 00:06:02;;;;;;;0.10;0.10;;;14.20;99.90;;;;;;5034270;28;20177;-72
2022/05/25 00:08:28;;;;;;;0.00;0.00;;;13.90;99.90;;;;;;5034115;28;20370;-72
2022/05/25 00:10:54;;;;;;;0.00;0.00;;;14.10;99.90;;;;;;5034146;28;20036;-72
2022/05/25 00:13:20;;;;;;;0.10;0.10;;;14.20;99.90;;;;;;5034264;28;20033;-72
2022/05/25 00:15:46;;;;;;;0.00;0.00;;;14.20;99.90;;;;;;5034387;28;20079;-72
2022/05/25 00:18:11;;;;;;;0.00;0.00;;;14.10;99.90;;;;;;5051710;28;20032;-72
2022/05/25 00:20:37;;;;;;;0.00;0.00;;;14.10;99.90;;;;;;5051902;28;20104;-72
2022/05/25 00:23:03;;;;;;;0.20;0.20;;;14.10;99.90;;;;;;5034126;28;20032;-71
2022/05/25 00:25:36;;;;;;;0.10;0.10;;;14.20;99.90;;;;;;5033977;28;20025;-72
2022/05/25 00:28:07;;;;;;;0.00;0.00;;;14.10;99.90;;;;;;5033727;28;20078;-72
2022/05/25 00:30:33;;;;;;;0.08;0.08;;;14.20;99.90;;;;;;5051894;28;20487;-72
2022/05/25 00:33:00;;;;;;;0.00;0.00;;;14.10;99.90;;;;;;5051861;28;20078;-72
2022/05/25 00:35:28;;;;;;;0.00;0.00;;;14.30;99.90;;;;;;5051768;28;20021;-72
2022/05/25 00:37:54;;;;;;;0.03;0.03;;;14.20;99.90;;;;;;5051867;28;20020;-72
2022/05/25 00:40:37;;;;;;;0.10;0.10;;;14.30;99.90;;;;;;5017478;28;20403;-72
2022/05/25 00:43:03;;;;;;;0.08;0.08;;;14.50;99.90;;;;;;5051754;28;20025;-73
2022/05/25 00:45:33;;;;;;;0.10;0.10;;;14.50;99.90;;;;;;5051339;28;20028;-72
2022/05/25 00:48:00;;;;;;;0.00;0.00;;;14.40;99.90;;;;;;5051573;28;20022;-73
2022/05/25 00:50:26;;;;;;;0.00;0.00;;;14.40;99.90;;;;;;5051660;28;20036;-72
2022/05/25 00:52:52;;;;;;;0.00;0.00;;;14.40;99.90;;;;;;5051611;28;20100;-72
2022/05/25 00:55:26;;;;;;;0.10;0.10;;;14.40;99.90;;;;;;5051645;28;20052;-72
2022/05/25 00:57:55;;;;;;;0.00;0.00;;;14.40;99.90;;;;;;5051261;28;20035;-72
2022/05/25 01:00:24;;;;;;;0.00;0.00;;;14.20;99.90;;;;;;5051488;28;20037;-72
2022/05/25 01:02:59;;;;;;;0.00;0.00;;;14.10;99.90;;;;;;5050211;28;20024;-72
2022/05/25 01:05:29;;;;;;;0.00;0.00;;;14.10;99.90;;;;;;5054563;28;20017;-72
2022/05/25 01:08:20;;;;;;;0.10;0.10;;;14.20;99.90;;;;;;5055337;28;20047;-72
2022/05/25 01:11:01;;;;;;;0.10;0.10;;;14.30;99.90;;;;;;5037593;28;20031;-72
2022/05/25 01:13:33;;;;;;;0.10;0.10;;;14.30;99.90;;;;;;5037505;28;20025;-72
2022/05/25 01:16:13;;;;;;;0.10;0.10;;;14.20;99.90;;;;;;5055293;28;20028;-71
2022/05/25 01:18:50;;;;;;;0.10;0.10;;;14.40;99.90;;;;;;5055001;28;20115;-72
2022/05/25 01:21:24;;;;;;;0.10;0.10;;;14.30;99.90;;;;;;5055152;28;20024;-72
2022/05/25 01:23:52;;;;;;;0.10;0.10;;;14.30;99.90;;;;;;5055132;28;20021;-72
2022/05/25 01:26:27;;;;;;;0.10;0.10;;;14.40;99.90;;;;;;5055161;28;20021;-72
2022/05/25 01:28:52;;;;;;;0.00;0.00;;;14.50;99.90;;;;;;5020503;28;20021;-71
2022/05/25 01:31:24;;;;;;;0.10;0.10;;;14.30;99.90;;;;;;5037229;28;20033;-72
2022/05/25 01:33:59;;;;;;;0.00;0.00;;;14.40;99.90;;;;;;5055269;28;20040;-72
2022/05/25 01:36:37;;;;;;;0.05;0.05;;;14.50;99.90;;;;;;5055024;28;20025;-71
2022/05/25 01:39:12;;;;;;;0.10;0.10;;;14.60;99.90;;;;;;5054808;28;20147;-72
2022/05/25 01:41:53;;;;;;;0.03;0.03;;;14.50;99.90;;;;;;5037008;28;20028;-72
2022/05/25 01:44:29;;;;;;;0.00;0.00;;;14.30;99.90;;;;;;5020663;28;20106;-72
2022/05/25 01:47:01;;;;;;;0.10;0.10;;;14.20;99.90;;;;;;5054503;28;20021;-73
2022/05/25 01:49:33;;;;;;;0.00;0.00;;;14.20;99.90;;;;;;5054823;28;20291;-73
2022/05/25 01:52:06;;;;;;;0.00;0.00;;;14.10;99.90;;;;;;5036708;28;20048;-72
2022/05/25 01:54:35;;;;;;;0.00;0.00;;;14.10;99.90;;;;;;5036692;28;20033;-72
2022/05/25 01:57:07;;;;;;;0.10;0.10;;;14.20;99.90;;;;;;5054500;28;20067;-73
2022/05/25 01:59:32;;;;;;;0.10;0.10;;;14.10;99.90;;;;;;5054358;28;20438;-73
2022/05/25 02:04:48;;;;;;;0.10;0.10;;;13.70;99.90;;;;;;5036764;28;20109;-72
2022/05/25 02:07:21;;;;;;;0.10;0.10;;;13.70;99.90;;;;;;5054212;28;20024;-72
2022/05/25 02:10:05;;;;;;;0.10;0.10;;;13.60;99.90;;;;;;5020048;28;20112;-72
2022/05/25 02:12:58;;;;;;;0.10;0.10;;;13.60;99.90;;;;;;5054897;28;20024;-72
2022/05/25 02:15:28;;;;;;;0.30;0.30;;;13.80;99.90;;;;;;5035753;28;20029;-72
2022/05/25 02:18:00;;;;;;;0.00;0.00;;;13.80;99.90;;;;;;5053776;28;20377;-72
2022/05/25 02:20:37;;;;;;;0.00;0.00;;;13.70;99.90;;;;;;5054170;28;20021;-73
2022/05/25 02:23:13;;;;;;;0.00;0.00;;;13.80;99.90;;;;;;5036258;28;20028;-73
2022/05/25 02:25:58;;;;;;;0.10;0.10;;;13.70;99.90;;;;;;5054053;28;20032;-72
2022/05/25 02:28:29;;;;;;;0.00;0.00;;;13.70;99.90;;;;;;5035871;28;20492;-72
2022/05/25 02:30:58;;;;;;;0.00;0.00;;;13.90;99.90;;;;;;5036030;28;20025;-73
2022/05/25 02:33:46;;;;;;;0.10;0.10;;;13.90;99.90;;;;;;5053752;28;20031;-73
2022/05/25 02:36:12;;;;;;;0.00;0.00;;;13.90;99.90;;;;;;5035936;28;20497;-73
2022/05/25 02:38:40;;;;;;;0.00;0.00;;;13.90;99.90;;;;;;5053555;28;20504;-72
2022/05/25 02:41:26;;;;;;;0.70;0.30;;;13.80;99.90;;;;;;5053604;28;20507;-72
2022/05/25 02:43:52;;;;;;;0.25;0.25;;;13.60;99.90;;;;;;5035714;28;20032;-72
2022/05/25 02:46:18;;;;;;;0.32;0.30;;;13.70;99.90;;;;;;5053322;28;20537;-72
2022/05/25 02:48:44;;;;;;;0.00;0.00;;;13.70;99.90;;;;;;5035837;28;20100;-72
2022/05/25 02:51:10;;;;;;;0.00;0.00;;;13.60;99.90;;;;;;5035606;28;20056;-73
2022/05/25 02:53:35;;;;;;;0.00;0.00;;;13.70;99.90;;;;;;5053515;28;20544;-72
2022/05/25 02:56:02;;;;;;;0.00;0.00;;;13.70;99.90;;;;;;5018983;28;20523;-72
2022/05/25 02:58:28;;;;;;;0.00;0.00;;;13.80;99.90;;;;;;5053244;28;20542;-72
2022/05/25 03:00:55;;;;;;;0.00;0.00;;;13.60;99.90;;;;;;5035514;28;20028;-72
2022/05/25 03:03:21;;;;;;;0.00;0.00;;;13.60;99.90;;;;;;5035531;28;20032;-72
2022/05/25 03:05:47;;;;;;;0.03;0.03;;;13.70;99.90;;;;;;5053281;28;20185;-72
2022/05/25 03:08:13;;;;;;;0.10;0.10;;;13.60;99.90;;;;;;5035261;28;20025;-72
2022/05/25 03:10:39;;;;;;;0.00;0.00;;;13.60;99.90;;;;;;5053092;28;20033;-71
2022/05/25 03:13:10;;;;;;;0.10;0.10;;;13.60;99.90;;;;;;5053095;28;20040;-71
2022/05/25 03:15:36;;;;;;;0.00;0.00;;;13.50;99.90;;;;;;5053148;28;20032;-72
2022/05/25 03:18:02;;;;;;;0.00;0.00;;;13.60;99.90;;;;;;5051621;28;20029;-72
2022/05/25 03:20:28;;;;;;;0.00;0.00;;;13.30;99.90;;;;;;5053059;28;20032;-72
2022/05/25 03:22:55;;;;;;;0.08;0.08;;;13.40;99.90;;;;;;5052970;28;20017;-72
2022/05/25 03:25:21;;;;;;;0.00;0.00;;;13.40;99.90;;;;;;5052803;28;20029;-72
2022/05/25 03:27:47;;;;;;;0.00;0.00;;;13.40;99.90;;;;;;5052522;28;20033;-72
2022/05/25 03:30:15;;;;;;;0.00;0.00;;;13.30;99.90;;;;;;5052730;28;20075;-72
2022/05/25 03:32:41;;;;;;;0.05;0.05;;;13.20;99.90;;;;;;5035105;28;20064;-73
2022/05/25 03:35:09;;;;;;;0.00;0.00;;;13.40;99.90;;;;;;5051469;28;20392;-73
2022/05/25 03:37:35;;;;;;;0.00;0.00;;;13.50;99.90;;;;;;5052457;28;20032;-72
2022/05/25 03:40:09;;;;;;;0.00;0.00;;;13.50;99.90;;;;;;5034926;28;20024;-72
2022/05/25 03:42:36;;;;;;;0.00;0.00;;;13.50;99.90;;;;;;5035208;28;20477;-73
2022/05/25 03:45:04;;;;;;;0.00;0.00;;;13.60;99.90;;;;;;5052722;28;20025;-72
2022/05/25 03:47:32;;;;;;;0.00;0.00;;;13.70;99.90;;;;;;5052191;28;20024;-72
2022/05/25 03:49:58;;;;;;;0.00;0.00;;;13.70;99.90;;;;;;5052614;28;20057;-72
2022/05/25 03:52:25;;;;;;;0.00;0.00;;;13.60;99.90;;;;;;5052673;28;20061;-71
2022/05/25 03:54:52;;;;;;;0.00;0.00;;;13.60;99.90;;;;;;5052609;28;20037;-72
2022/05/25 03:57:18;;;;;;;0.00;0.00;;;13.60;99.90;;;;;;5034512;28;20032;-72
2022/05/25 03:59:45;;;;;;;0.00;0.00;;;13.70;99.90;;;;;;5034383;28;20035;-73
2022/05/25 04:02:11;;;;;;;0.00;0.00;;;13.80;99.90;;;;;;5052281;28;20032;-72
2022/05/25 04:04:37;;;;;;;0.00;0.00;;;13.90;99.90;;;;;;5052356;28;20104;-72
2022/05/25 04:07:03;;;;;;;0.00;0.00;;;14.00;99.90;;;;;;5052129;28;20053;-72
2022/05/25 04:09:29;;;;;;;0.00;0.00;;;13.90;99.90;;;;;;5052358;28;20048;-72
2022/05/25 04:11:55;;;;;;;0.00;0.00;;;14.10;99.90;;;;;;5034237;28;20032;-72
2022/05/25 04:14:21;;;;;;;0.00;0.00;;;14.10;99.90;;;;;;5052144;28;20025;-72
2022/05/25 04:16:46;;;;;;;0.00;0.00;;;14.10;99.90;;;;;;5050511;28;20036;-72
2022/05/25 04:19:13;;;;;;;0.00;0.00;;;14.10;99.90;;;;;;5052001;28;20025;-73
2022/05/25 04:21:39;;;;;;;0.00;0.00;;;14.10;99.90;;;;;;5052055;28;20021;-73
2022/05/25 04:24:05;;;;;;;1.02;0.03;;;14.00;99.90;;;;;;5034263;28;20029;-71
2022/05/25 04:26:32;;;;;;;0.10;0.10;;;13.90;99.90;;;;;;5033897;28;20029;-72
2022/05/25 04:29:00;;;;;;;0.00;0.00;;;13.80;99.90;;;;;;5087489;22;20520;-74
2022/05/25 04:31:26;;;;;;;0.10;0.10;;;13.80;99.90;;;;;;5031630;28;20025;-74
2022/05/25 04:33:52;;;;;;;0.20;0.20;;;13.70;99.90;;;;;;5032374;28;20033;-74
2022/05/25 04:36:18;;;;;;;0.00;0.00;;;13.60;99.90;;;;;;5014789;28;20036;-74
2022/05/25 04:38:44;;;;;;;0.00;0.00;;;13.60;99.90;;;;;;5014913;28;20026;-74
2022/05/25 04:41:10;;;;;;;0.00;0.00;;;13.70;99.90;;;;;;5018823;28;20606;-74
2022/05/25 04:43:36;;;;;;;0.00;0.00;;;13.60;99.90;;;;;;5036332;28;20385;-74
2022/05/25 04:46:10;;;;;;;0.30;0.30;;;13.70;99.90;;;;;;5036596;28;20104;-74
2022/05/25 04:48:36;;;;;;;0.00;0.00;;;13.50;99.90;;;;;;5036393;28;20029;-74
2022/05/25 04:51:02;;;;;;;0.00;0.00;;;13.60;99.90;;;;;;5018119;28;20485;-74
2022/05/25 04:53:28;;;;;;;0.00;0.00;;;13.70;99.90;;;;;;5035903;28;20083;-74
2022/05/25 04:58:42;;;;;;;0.00;0.00;;;13.60;99.90;;;;;;5036199;28;20083;-74
2022/05/25 05:01:10;;;;;;;0.45;0.25;;;13.70;99.90;;;;;;5036132;28;20030;-74
2022/05/25 05:03:36;;;;;;;0.00;0.00;;;13.70;99.90;;;;;;5017545;28;20384;-74
2022/05/25 05:06:04;;;;;;;0.00;0.00;;;13.70;99.90;;;;;;5035725;28;20049;-74
2022/05/25 05:08:31;;;;;;;0.10;0.10;;;13.70;99.90;;;;;;5036105;28;20033;-74
2022/05/25 05:10:57;;;;;;;0.00;0.00;;;13.70;99.90;;;;;;5035751;28;20030;-74
2022/05/25 05:13:23;;;;;;;0.00;0.00;;;13.70;99.90;;;;;;5001846;28;20036;-74
2022/05/25 05:15:51;;;;;;;0.00;0.00;;;13.70;99.90;;;;;;5036137;28;20033;-74
2022/05/25 05:18:19;;;;;;;3.20;0.30;;;13.80;99.90;;;;;;5019067;28;20032;-77
2022/05/25 05:20:45;;;;;;;0.10;0.10;;;13.80;99.90;;;;;;5021346;28;20029;-74
2022/05/25 05:23:11;;;;;;;0.17;0.17;;;13.80;99.90;;;;;;5019303;28;20025;-75
2022/05/25 05:25:39;;;;;;;0.45;0.45;;;13.70;99.90;;;;;;5017843;28;20409;-74
2022/05/25 05:28:10;;;;;;;0.00;0.00;;;13.80;99.90;;;;;;5035967;28;20021;-74
2022/05/25 05:30:43;;;;;;;2.10;0.38;;;13.80;99.90;;;;;;5037255;28;20025;-75
2022/05/25 05:33:09;;;;;;;0.10;0.10;;;13.60;99.90;;;;;;5036017;28;20109;-75
2022/05/25 05:35:35;;;;;;;0.00;0.00;;;13.60;99.90;;;;;;5011398;28;20477;-76
2022/05/25 05:38:01;;;;;;;0.30;0.30;;;13.50;99.90;;;;;;5016921;28;20105;-75
2022/05/25 05:40:28;;;;;;;0.03;0.03;;;13.40;99.90;;;;;;5026619;28;20029;-75
2022/05/25 05:42:54;;;;;;;0.93;0.73;;;13.40;99.90;;;;;;5035860;28;20014;-73
2022/05/25 05:45:27;;;;;;;0.88;0.82;;;13.50;99.90;;;;;;5035121;28;20018;-75
2022/05/25 05:48:01;;;;;;;0.00;0.00;;;13.50;99.90;;;;;;5035020;28;20108;-75
2022/05/25 05:50:29;;;;;;;0.00;0.00;;;13.40;99.90;;;;;;5017207;28;20032;-75
2022/05/25 05:52:56;;;;;;;0.15;0.15;;;13.40;99.90;;;;;;5034921;28;20041;-75
2022/05/25 05:55:22;;;;;;;0.00;0.00;;;13.50;99.90;;;;;;5034721;28;20026;-75
2022/05/25 05:57:48;;;;;;;0.00;0.00;;;13.60;99.90;;;;;;5017496;28;20029;-75
2022/05/25 06:00:16;;;;;;;1.42;0.50;;;13.50;99.90;;;;;;5035526;28;20025;-76
2022/05/25 06:02:44;;;;;;;0.00;0.00;;;13.40;99.90;;;;;;5017700;28;20036;-76
2022/05/25 06:05:11;;;;;;;0.00;0.00;;;13.30;99.90;;;;;;5017610;28;20036;-75
2022/05/25 06:07:37;;;;;;;0.00;0.00;;;13.30;99.90;;;;;;5016699;28;20017;-74
2022/05/25 06:10:06;;;;;;;1.20;0.80;;;13.30;99.90;;;;;;5034306;28;20117;-73
2022/05/25 06:12:32;;;;;;;0.00;0.00;;;13.40;99.90;;;;;;5034814;28;20025;-73
2022/05/25 06:14:59;;;;;;;7.13;4.28;;;13.30;99.90;;;;;;5034751;28;20042;-74
2022/05/25 06:20:09;;;;;;;0.63;0.55;;;13.30;99.90;;;;;;5034498;28;20057;-75
2022/05/25 06:22:36;;;;;;;0.35;0.35;;;13.30;99.90;;;;;;5017100;28;20025;-74
2022/05/25 06:25:03;;;;;;;0.00;0.00;;;13.30;99.90;;;;;;5034148;28;20071;-74
2022/05/25 06:27:29;;;;;;;0.00;0.00;;;13.40;99.90;;;;;;5034506;28;20022;-74
2022/05/25 06:29:55;;;;;;;0.00;0.00;;;13.50;99.90;;;;;;5034374;28;20083;-74
2022/05/25 06:32:23;;;;;;;0.00;0.00;;;13.60;99.90;;;;;;5034131;28;20464;-74
2022/05/25 06:34:48;;;;;;;0.00;0.00;;;13.50;99.90;;;;;;5034237;28;20500;-74
2022/05/25 06:37:17;;;;;;;0.00;0.00;;;13.70;99.90;;;;;;4999956;28;20512;-74
2022/05/25 06:39:43;;;;;;;0.00;0.00;;;13.80;99.90;;;;;;5034450;28;20540;-74
2022/05/25 06:42:09;;;;;;;0.00;0.00;;;13.90;99.90;;;;;;5033998;28;20094;-75
2022/05/25 06:44:35;;;;;;;0.00;0.00;;;13.90;99.90;;;;;;5016249;28;20017;-74
2022/05/25 06:47:01;;;;;;;0.00;0.00;;;13.90;99.90;;;;;;5033799;28;20033;-74
2022/05/25 06:49:28;;;;;;;0.00;0.00;;;13.90;99.90;;;;;;5035729;28;20025;-76
2022/05/25 06:54:28;;;;;;;0.10;0.10;;;13.70;99.90;;;;;;5052230;28;20049;-73
2022/05/25 06:56:53;;;;;;;0.10;0.10;;;13.80;99.90;;;;;;5051070;28;20009;-74
2022/05/25 06:59:19;;;;;;;0.10;0.10;;;13.80;99.90;;;;;;5051900;28;20369;-74
2022/05/25 07:01:46;;;;;;;0.03;0.03;;;13.90;99.90;;;;;;5051172;28;20028;-74
2022/05/25 07:04:11;;;;;;;0.20;0.20;;;13.90;99.90;;;;;;5044230;28;20025;-75
2022/05/25 07:06:38;;;;;;;0.20;0.20;;;13.90;99.90;;;;;;5039738;28;20076;-76
2022/05/25 07:09:06;;;;;;;0.00;0.00;;;13.90;99.90;;;;;;5031171;28;20516;-75
2022/05/25 07:11:33;;;;;;;0.00;0.00;;;14.00;99.90;;;;;;5041083;28;20086;-75
2022/05/25 07:13:59;;;;;;;0.00;0.00;;;13.90;99.90;;;;;;5031129;28;20032;-75
2022/05/25 07:16:26;;;;;;;0.08;0.08;;;14.00;99.90;;;;;;5032004;28;21155;-76
2022/05/25 07:18:52;;;;;;;0.05;0.05;;;14.00;99.90;;;;;;5041900;28;20102;-76
2022/05/25 07:21:25;;;;;;;0.10;0.10;;;13.90;99.90;;;;;;5041412;28;20485;-76
2022/05/25 07:23:52;;;;;;;0.47;0.47;;;13.80;99.90;;;;;;5030818;28;20032;-75
2022/05/25 07:26:19;;;;;;;0.40;0.17;;;13.60;99.90;;;;;;5030602;28;20116;-75
2022/05/25 07:28:46;;;;;;;0.00;0.00;;;13.70;99.90;;;;;;5014413;28;20496;-76
2022/05/25 07:31:23;;;;;;;0.00;0.00;;;13.70;99.90;;;;;;5029628;28;20097;-76
2022/05/25 07:34:13;;;;;;;0.03;0.03;;;13.80;99.90;;;;;;5041945;28;20331;-75
2022/05/25 07:36:41;;;;;;;0.00;0.00;;;13.80;99.90;;;;;;5011962;28;20052;-75
2022/05/25 07:39:11;;;;;;;0.10;0.10;;;13.90;99.90;;;;;;5040621;28;20119;-76
2022/05/25 07:41:40;;;;;;;0.10;0.10;;;14.00;99.90;;;;;;5041295;28;20025;-76
2022/05/25 07:44:10;;;;;;;0.00;0.00;;;14.00;99.90;;;;;;5041014;28;20120;-76
2022/05/25 07:46:36;;;;;;;0.10;0.10;;;14.10;99.90;;;;;;5040913;28;20052;-75
2022/05/25 07:49:02;;;;;;;0.10;0.10;;;14.10;99.90;;;;;;5041178;28;20108;-75
2022/05/25 07:51:28;;;;;;;0.10;0.10;;;14.10;99.90;;;;;;5014363;28;20033;-76
2022/05/25 07:53:57;;;;;;;0.03;0.03;;;14.20;99.90;;;;;;5029634;28;20040;-75
2022/05/25 07:56:25;;;;;;;0.10;0.10;;;14.30;99.90;;;;;;5032301;28;20636;-75
2022/05/25 07:58:51;;;;;;;2.17;0.90;;;14.10;99.90;;;;;;5031867;28;20115;-76
2022/05/25 08:05:43;;;;;;;0.00;0.00;;;14.20;99.90;;;;;;5014175;28;20034;-76
2022/05/25 08:06:50;;;;;;;0.00;0.00;;;14.50;99.90;;;;;;5031640;28;20028;-76
2022/05/25 08:09:16;;;;;;;0.10;0.10;;;14.60;99.90;;;;;;5039935;28;20036;-75
2022/05/25 08:11:43;;;;;;;0.10;0.10;;;14.50;99.90;;;;;;5038959;28;20110;-75
2022/05/25 08:14:09;;;;;;;0.08;0.08;;;14.40;99.90;;;;;;5040230;28;20032;-76
2022/05/25 08:16:35;;;;;;;0.05;0.05;;;14.50;99.90;;;;;;5042018;28;20079;-78
2022/05/25 08:19:01;;;;;;;1.92;0.57;;;14.60;99.90;;;;;;5040181;28;20468;-77
2022/05/25 08:21:27;;;;;;;0.00;0.00;;;14.60;99.90;;;;;;5010788;28;20036;-82
2022/05/25 08:23:53;;;;;;;0.00;0.00;;;14.70;99.90;;;;;;5018363;28;20028;-80
2022/05/25 08:26:18;;;;;;;0.00;0.00;;;14.80;99.90;;;;;;5041975;28;20400;-76
2022/05/25 08:28:44;;;;;;;0.00;0.00;;;14.90;99.90;;;;;;5034251;28;20063;-76
2022/05/25 08:31:10;;;;;;;0.10;0.10;;;14.80;99.90;;;;;;5014901;28;20036;-77
2022/05/25 08:33:36;;;;;;;0.20;0.20;;;14.80;99.90;;;;;;5031067;28;20090;-77
2022/05/25 08:36:02;;;;;;;0.10;0.10;;;14.80;99.90;;;;;;5032037;28;20033;-77
2022/05/25 08:38:28;;;;;;;1.23;0.20;;;14.90;99.90;;;;;;5031452;28;20388;-77
2022/05/25 08:40:55;;;;;;;0.10;0.10;;;15.10;99.90;;;;;;5032981;28;20036;-77
2022/05/25 08:43:44;;;;;;;0.10;0.10;;;15.20;99.90;;;;;;5032235;28;20048;-77
2022/05/25 08:46:14;;;;;;;0.10;0.10;;;15.20;99.90;;;;;;5031566;28;20487;-77
2022/05/25 08:48:42;;;;;;;0.10;0.10;;;15.20;99.90;;;;;;5041464;28;20017;-77
2022/05/25 08:51:15;;;;;;;0.10;0.10;;;15.40;99.90;;;;;;5042001;28;20087;-77
2022/05/25 08:53:42;;;;;;;0.32;0.15;;;15.40;99.90;;;;;;5030671;28;20045;-77
2022/05/25 08:56:27;;;;;;;0.10;0.10;;;15.50;99.90;;;;;;5041466;28;20040;-77
2022/05/25 08:59:07;;;;;;;0.25;0.25;;;15.60;99.90;;;;;;5012755;28;20404;-77
2022/05/25 09:01:55;;;;;;;0.10;0.10;;;15.50;99.90;;;;;;5041300;28;20036;-77
2022/05/25 09:04:33;;;;;;;0.20;0.20;;;15.40;99.90;;;;;;5039516;28;20025;-77
2022/05/25 09:07:13;;;;;;;0.10;0.10;;;15.30;99.90;;;;;;5037860;28;20087;-76
2022/05/25 09:09:47;;;;;;;0.10;0.10;;;15.40;99.90;;;;;;5038316;28;20094;-76
2022/05/25 09:12:24;;;;;;;0.00;0.00;;;15.50;99.90;;;;;;5032448;28;20079;-77
2022/05/25 09:15:00;;;;;;;0.10;0.10;;;15.70;99.90;;;;;;5026615;28;20033;-74
2022/05/25 09:17:41;;;;;;;0.08;0.08;;;15.70;99.90;;;;;;5027250;28;20036;-75
2022/05/25 09:20:12;;;;;;;0.10;0.10;;;15.80;99.90;;;;;;5040950;28;20032;-76
2022/05/25 09:22:38;;;;;;;0.10;0.10;;;15.90;99.90;;;;;;5030824;28;20037;-76
2022/05/25 09:25:06;;;;;;;0.08;0.08;;;15.90;99.90;;;;;;5031622;28;20348;-75
2022/05/25 09:27:52;;;;;;;0.10;0.10;;;16.00;99.90;;;;;;5017224;28;20492;-75
2022/05/25 09:30:18;;;;;;;0.10;0.10;;;16.00;99.90;;;;;;5043588;28;20033;-77
2022/05/25 09:32:55;;;;;;;0.15;0.15;;;16.00;99.90;;;;;;5044158;28;20040;-77
2022/05/25 09:35:38;;;;;;;0.10;0.10;;;15.80;99.90;;;;;;5032960;28;20040;-76
2022/05/25 09:38:06;;;;;;;0.10;0.10;;;15.90;99.90;;;;;;5016267;28;20044;-75
2022/05/25 09:40:38;;;;;;;0.10;0.10;;;16.00;99.90;;;;;;5019043;28;20025;-76
2022/05/25 09:43:08;;;;;;;0.10;0.10;;;16.00;99.90;;;;;;5017832;28;20033;-76
2022/05/25 09:45:48;;;;;;;0.13;0.13;;;15.80;99.90;;;;;;5035512;28;20033;-76
2022/05/25 09:48:22;;;;;;;0.10;0.10;;;15.90;99.90;;;;;;5044083;28;20029;-76
2022/05/25 09:50:54;;;;;;;0.10;0.10;;;15.90;99.90;;;;;;5036547;28;20068;-75
2022/05/25 09:53:23;;;;;;;0.30;0.30;;;16.10;99.90;;;;;;5044015;28;20547;-77
2022/05/25 09:56:05;;;;;;;0.35;0.35;;;16.00;99.90;;;;;;5009383;28;20112;-76
2022/05/25 09:58:38;;;;;;;0.47;0.43;;;16.10;99.90;;;;;;5033578;28;20658;-76
2022/05/25 10:01:07;;;;;;;3.70;1.23;;;16.00;99.90;;;;;;5033454;28;20040;-75
2022/05/25 10:03:41;;;;;;;0.10;0.10;;;16.10;99.90;;;;;;5042254;28;20028;-75
2022/05/25 10:06:24;;;;;;;2.00;0.60;;;16.30;99.90;;;;;;5034227;28;20527;-76
2022/05/25 10:09:07;;;;;;;0.10;0.10;;;16.10;99.90;;;;;;5033005;28;20112;-76
2022/05/25 10:11:41;;;;;;;0.10;0.10;;;16.20;99.90;;;;;;5042698;28;20071;-74
2022/05/25 10:14:38;;;;;;;0.10;0.10;;;16.40;99.90;;;;;;5031652;28;20569;-75
2022/05/25 10:17:16;;;;;;;0.10;0.10;;;16.40;99.90;;;;;;5032436;28;20716;-76
2022/05/25 10:19:51;;;;;;;0.10;0.10;;;16.20;99.90;;;;;;5042606;28;20377;-74
2022/05/25 10:22:32;;;;;;;0.10;0.10;;;16.20;99.90;;;;;;5042701;28;20025;-76
2022/05/25 10:25:05;;;;;;;0.10;0.10;;;16.40;99.90;;;;;;5042399;28;20017;-76
2022/05/25 10:27:41;;;;;;;0.10;0.10;;;16.30;99.90;;;;;;5034083;28;20531;-74
2022/05/25 10:39:16;;;;;;;0.10;0.10;;;16.50;99.90;;;;;;5042068;28;20040;-74
2022/05/25 10:41:44;;;;;;;;;;;16.80;99.90;;;;;;5031217;28;20494;-76
2022/05/25 10:44:21;;;;;;;0.28;0.28;;;16.80;99.90;;;;;;5014878;28;19928;-73
2022/05/25 10:46:57;;;;;;;0.10;0.10;;;16.60;99.90;;;;;;5032247;28;20021;-73
2022/05/25 10:49:40;;;;;;;0.10;0.10;;;16.80;99.90;;;;;;5033534;28;20112;-74
2022/05/25 10:52:15;;;;;;;0.32;0.32;;;17.00;99.90;;;;;;5033466;28;20053;-74
2022/05/25 10:54:45;;;;;;;0.10;0.10;;;16.80;99.90;;;;;;5030609;28;20031;-72
2022/05/25 10:57:48;;;;;;;0.10;0.10;;;16.90;99.90;;;;;;5041595;28;20033;-73
2022/05/25 11:00:23;;;;;;;0.20;0.15;;;16.80;99.90;;;;;;5041418;28;20112;-73
2022/05/25 11:03:06;;;;;;;0.40;0.40;;;16.80;99.90;;;;;;5041838;28;20029;-76
2022/05/25 11:05:52;;;;;;;0.10;0.10;;;16.70;99.90;;;;;;5031130;28;20302;-75
2022/05/25 11:08:33;;;;;;;0.00;0.00;;;17.00;99.90;;;;;;5030276;28;20033;-73
2022/05/25 11:11:12;;;;;;;0.10;0.10;;;17.20;99.90;;;;;;5031742;28;20029;-75
2022/05/25 11:13:43;;;;;;;1.55;1.45;;;17.30;99.90;;;;;;5041589;28;20025;-76
2022/05/25 11:16:15;;;;;;;0.10;0.10;;;17.30;99.90;;;;;;5040785;28;20958;-75
2022/05/25 11:18:50;;;;;;;0.10;0.10;;;17.40;99.90;;;;;;5030469;28;20582;-76
2022/05/25 11:21:58;;;;;;;0.10;0.10;;;17.50;99.90;;;;;;5029831;28;20101;-74
2022/05/25 11:24:35;;;;;;;0.00;0.00;;;17.50;99.90;;;;;;5032710;28;20523;-75
2022/05/25 11:27:36;;;;;;;0.10;0.10;;;17.40;99.90;;;;;;5043268;28;20071;-75
2022/05/25 11:30:41;;;;;;;0.30;0.30;;;17.60;99.90;;;;;;5005369;28;20036;-74
2022/05/25 11:33:15;;;;;;;0.10;0.10;;;17.90;99.90;;;;;;5027022;28;20077;-75
2022/05/25 11:36:00;;;;;;;0.00;0.00;;;17.90;99.90;;;;;;5031344;28;20135;-75
2022/05/25 11:38:45;;;;;;;0.70;0.28;;;17.50;99.90;;;;;;5043518;28;20499;-75
2022/05/25 11:41:27;;;;;;;0.10;0.10;;;17.60;99.90;;;;;;5031464;28;20029;-74
2022/05/25 11:44:17;;;;;;;0.10;0.10;;;17.80;99.90;;;;;;5040074;28;20021;-73
2022/05/25 11:46:44;;;;;;;0.10;0.10;;;18.20;99.90;;;;;;5040846;28;20533;-75
2022/05/25 11:49:47;;;;;;;0.20;0.20;;;18.20;99.90;;;;;;5040834;28;20029;-74
2022/05/25 11:52:38;;;;;;;0.10;0.10;;;17.90;99.90;;;;;;5042499;28;20344;-76
2022/05/25 11:57:40;;;;;;;1.77;0.68;;;18.20;99.90;;;;;;5018727;28;20049;-74
2022/05/25 12:00:09;;;;;;;0.17;0.17;;;18.40;99.80;;;;;;5002831;28;20041;-75
2022/05/25 12:03:13;;;;;;;0.10;0.10;;;18.50;99.90;;;;;;4984682;28;20029;-76
2022/05/25 12:06:00;;;;;;;0.10;0.10;;;18.40;98.90;;;;;;4980235;28;20045;-76
2022/05/25 12:08:50;;;;;;;0.10;0.10;;;18.40;99.40;;;;;;5019935;28;20035;-76
2022/05/25 12:11:48;;;;;;;0.03;0.03;;;18.30;99.60;;;;;;5019111;28;21561;-75
2022/05/25 12:14:39;;;;;;;0.10;0.10;;;18.50;99.90;;;;;;4975651;28;20053;-75
2022/05/25 12:17:54;;;;;;;0.10;0.10;;;18.60;99.80;;;;;;5019148;28;20033;-75
2022/05/25 12:20:27;;;;;;;0.20;0.20;;;18.90;99.10;;;;;;4966218;28;21428;-75
2022/05/25 12:22:58;;;;;;;0.17;0.17;;;18.90;97.90;;;;;;5002070;28;20468;-76
2022/05/25 12:25:24;;;;;;;0.10;0.10;;;18.80;96.80;;;;;;5019576;28;20013;-76
2022/05/25 12:27:53;;;;;;;0.10;0.10;;;18.70;97.60;;;;;;5018970;28;20519;-76
2022/05/25 12:30:54;;;;;;;0.00;0.00;;;18.20;97.20;;;;;;5009826;28;20180;-76
2022/05/25 12:33:24;;;;;;;0.55;0.10;;;18.80;97.60;;;;;;4966512;28;20098;-76
2022/05/25 12:35:51;;;;;;;0.10;0.10;;;18.80;94.90;;;;;;5019521;28;20495;-76
2022/05/25 12:38:19;;;;;;;0.10;0.10;;;18.80;97.00;;;;;;5008605;28;20017;-76
2022/05/25 12:40:50;;;;;;;0.10;0.10;;;18.90;97.90;;;;;;5019598;28;20033;-76
2022/05/25 12:43:34;;;;;;;0.10;0.10;;;19.00;97.10;;;;;;5025187;28;20064;-76
2022/05/25 12:48:56;;;;;;;0.03;0.03;;;18.60;94.60;;;;;;5019259;28;20026;-76
2022/05/25 12:51:39;;;;;;;0.10;0.10;;;18.70;95.50;;;;;;5019407;28;20040;-75
2022/05/25 12:54:31;;;;;;;0.05;0.05;;;18.80;96.50;;;;;;5009937;28;20033;-76
2022/05/25 12:56:59;;;;;;;0.45;0.40;;;18.60;97.40;;;;;;5018477;28;20190;-76
2022/05/25 12:59:29;;;;;;;0.10;0.10;;;18.40;95.20;;;;;;5018806;28;20452;-76
2022/05/25 13:02:27;;;;;;;1.00;0.90;;;18.60;96.60;;;;;;5022055;28;21097;-76
2022/05/25 13:04:55;;;;;;;0.10;0.10;;;18.80;94.90;;;;;;5009395;28;20080;-76
2022/05/25 13:07:46;;;;;;;0.05;0.05;;;18.80;94.80;;;;;;5021783;28;20060;-76
2022/05/25 13:10:12;;;;;;;0.10;0.10;;;18.90;95.00;;;;;;5022461;28;21004;-76
2022/05/25 13:12:42;;;;;;;0.08;0.08;;;18.90;93.80;;;;;;5013219;28;20537;-76
2022/05/25 13:15:14;;;;;;;0.10;0.10;;;18.60;93.90;;;;;;5023142;28;20124;-76
2022/05/25 13:17:48;;;;;;;0.10;0.10;;;18.40;94.50;;;;;;5011835;28;20044;-76
2022/05/25 13:20:47;;;;;;;0.10;0.10;;;18.30;94.60;;;;;;5023122;28;20878;-76
2022/05/25 13:23:51;;;;;;;0.10;0.10;;;18.30;94.80;;;;;;5011945;28;20638;-76
2022/05/25 13:26:24;;;;;;;0.10;0.10;;;18.40;95.20;;;;;;5012127;28;20034;-76
2022/05/25 13:29:02;;;;;;;0.10;0.10;;;18.40;95.60;;;;;;5022159;28;20029;-76
2022/05/25 13:31:54;;;;;;;0.10;0.10;;;18.40;95.90;;;;;;5028453;28;20439;-76
2022/05/25 13:34:20;;;;;;;;;;;18.50;96.10;;;;;;5005427;28;20033;-76
2022/05/25 13:36:57;;;;;;;0.30;0.30;;;18.40;95.80;;;;;;5011233;28;19920;-76
2022/05/25 13:39:28;;;;;;;0.00;0.00;;;18.50;95.30;;;;;;5010880;28;20040;-76
2022/05/25 13:41:56;;;;;;;0.10;0.10;;;18.40;95.20;;;;;;5022480;28;20037;-76